Manilla, Iowa
Current Conditions -  °F | °C
As of 11:35 PM on Sunday 21 Dec 2014 (Local Time) from KDNS Reporting Station
Haze Haze  
Wind Chill: 33°   Ceiling: 500
Heat Index: 41°   Visibility: 2mi
Dew Point: 41°   Wind: 16mph
Humidity: 100%   Direction: 170°S
Pressure: 29.64"   Gusts: 22mph
Location:  41.89°N, 95.23°W
Report Text: KDNS 220535Z AUTO 17014G19KT 2SM BR OVC005 05/05 A2964 RMK AO2
Loading
Personal Weather Stations






























Interactive Weather Map New forecast layout! Learn more

10-Day Weather Forecast

Advertisements
Track Severe Weather on mobile